Time;durP1;ratioP1;P1;durP2;ratioP2;P2;SDS_P1;SDS_P2;PMS_P1;PMS_P2;Temp;Humidity;BMP_temperature;BMP_pressure;BME280_temperature;BME280_humidity;BME280_pressure;Samples;Min_cycle;Max_cycle;Signal;HPM_P1;HPM_P2
2024/01/21 00:02:25;;;;;;;5.10;4.90;;;15.70;62.90;;;;;;5057842;28;43410;-76
2024/01/21 00:04:54;;;;;;;5.47;5.27;;;15.70;63.00;;;;;;5053318;28;43444;-78
2024/01/21 00:07:23;;;;;;;5.40;5.20;;;15.70;63.10;;;;;;5054643;28;43860;-76
2024/01/21 00:09:51;;;;;;;5.27;5.07;;;15.70;63.20;;;;;;5049271;28;46090;-76
2024/01/21 00:12:19;;;;;;;5.77;5.57;;;15.70;63.10;;;;;;5055722;28;43522;-76
2024/01/21 00:14:47;;;;;;;5.57;5.37;;;15.70;63.20;;;;;;5048853;28;43304;-76
2024/01/21 00:17:17;;;;;;;5.80;5.50;;;15.70;63.20;;;;;;5056727;28;43641;-76
2024/01/21 00:19:45;;;;;;;5.30;5.10;;;15.70;63.20;;;;;;5056618;28;43962;-77
2024/01/21 00:22:15;;;;;;;5.33;5.13;;;15.70;63.90;;;;;;5054890;28;43387;-76
2024/01/21 00:24:43;;;;;;;5.27;5.07;;;15.60;63.10;;;;;;5052642;28;43438;-75
2024/01/21 00:27:11;;;;;;;5.70;5.50;;;15.60;63.20;;;;;;5056890;28;43398;-77
2024/01/21 00:29:40;;;;;;;5.00;4.80;;;15.60;63.10;;;;;;5052711;28;45439;-77
2024/01/21 00:32:08;;;;;;;5.47;5.27;;;15.60;63.20;;;;;;5051958;28;45057;-77
2024/01/21 00:34:36;;;;;;;5.43;5.23;;;15.60;63.10;;;;;;5055452;28;43442;-77
2024/01/21 00:37:04;;;;;;;5.37;5.17;;;15.60;63.10;;;;;;5053309;28;43591;-77
2024/01/21 00:39:34;;;;;;;5.37;5.17;;;15.60;63.20;;;;;;5053078;28;43627;-77
2024/01/21 00:42:02;;;;;;;5.20;5.00;;;15.60;63.20;;;;;;5050625;28;44680;-77
2024/01/21 00:44:36;;;;;;;5.67;5.47;;;15.60;63.30;;;;;;5050763;28;43393;-77
2024/01/21 00:47:04;;;;;;;5.53;5.33;;;15.60;63.40;;;;;;5055026;28;43405;-77
2024/01/21 00:49:33;;;;;;;5.90;5.70;;;15.70;64.20;;;;;;5050578;28;45726;-76
2024/01/21 00:52:01;;;;;;;5.50;5.30;;;15.70;63.10;;;;;;5052561;28;43419;-77
2024/01/21 00:54:29;;;;;;;5.33;5.13;;;15.80;62.60;;;;;;5058066;28;43451;-77
2024/01/21 00:56:59;;;;;;;5.50;5.30;;;15.80;62.60;;;;;;5052920;28;43595;-77
2024/01/21 00:59:27;;;;;;;5.47;5.27;;;15.80;62.70;;;;;;5052042;28;45819;-75
2024/01/21 01:01:55;;;;;;;5.80;5.60;;;15.70;62.60;;;;;;5057737;28;43648;-75
2024/01/21 01:04:23;;;;;;;5.10;4.90;;;15.80;62.90;;;;;;5056360;28;43530;-75
2024/01/21 01:06:52;;;;;;;5.67;5.47;;;15.70;62.80;;;;;;5063993;28;44118;-75
2024/01/21 01:09:21;;;;;;;5.57;5.37;;;15.70;62.90;;;;;;5058309;28;45323;-74
2024/01/21 01:11:49;;;;;;;5.63;5.43;;;15.70;62.90;;;;;;5058260;28;44897;-75
2024/01/21 01:14:18;;;;;;;5.40;5.20;;;15.70;62.90;;;;;;5051629;28;43491;-74
2024/01/21 01:16:47;;;;;;;5.87;5.67;;;15.70;63.00;;;;;;5055117;28;43579;-74
2024/01/21 01:19:15;;;;;;;5.83;5.53;;;15.70;63.00;;;;;;5047081;28;45924;-74
2024/01/21 01:21:43;;;;;;;5.77;5.57;;;15.70;63.10;;;;;;5054727;28;43543;-74
2024/01/21 01:24:12;;;;;;;5.80;5.60;;;15.60;63.30;;;;;;5052091;28;43375;-75
2024/01/21 01:26:40;;;;;;;5.53;5.33;;;15.70;63.20;;;;;;5055554;28;43459;-75
2024/01/21 01:29:08;;;;;;;5.90;5.60;;;15.70;62.90;;;;;;5049754;28;43743;-76
2024/01/21 01:31:38;;;;;;;5.47;5.27;;;15.70;62.80;;;;;;5049515;28;44830;-76
2024/01/21 01:34:06;;;;;;;5.00;4.90;;;15.70;62.90;;;;;;5055412;28;43383;-74
2024/01/21 01:36:35;;;;;;;5.07;4.87;;;15.70;62.90;;;;;;5053950;28;43593;-75
2024/01/21 01:39:03;;;;;;;5.33;5.13;;;15.70;63.00;;;;;;5046186;28;45103;-74
2024/01/21 01:41:31;;;;;;;5.70;5.40;;;15.70;63.10;;;;;;5056669;28;43569;-76
2024/01/21 01:43:59;;;;;;;5.83;5.63;;;15.60;63.60;;;;;;5053286;28;43414;-76
2024/01/21 01:46:27;;;;;;;5.77;5.57;;;15.70;63.10;;;;;;5058287;28;43489;-74
2024/01/21 01:48:57;;;;;;;5.40;5.20;;;15.70;63.10;;;;;;5058061;28;43733;-74
2024/01/21 01:51:26;;;;;;;5.67;5.47;;;15.60;63.00;;;;;;5052453;28;43987;-76
2024/01/21 01:53:54;;;;;;;5.57;5.37;;;15.60;63.80;;;;;;5050780;28;43438;-77
2024/01/21 01:56:22;;;;;;;5.70;5.50;;;15.60;63.10;;;;;;5057444;28;43490;-76
2024/01/21 01:58:50;;;;;;;5.67;5.47;;;15.60;63.20;;;;;;5057061;28;43598;-79
2024/01/21 02:01:19;;;;;;;5.83;5.63;;;15.60;63.10;;;;;;5052175;28;43562;-76
2024/01/21 02:03:47;;;;;;;5.67;5.47;;;15.60;63.00;;;;;;5057645;28;43368;-75
2024/01/21 02:06:17;;;;;;;5.30;5.10;;;15.60;63.10;;;;;;5036119;28;43547;-74
2024/01/21 02:08:46;;;;;;;5.73;5.53;;;15.60;63.10;;;;;;5059469;28;45884;-81
2024/01/21 02:11:14;;;;;;;5.90;5.70;;;15.60;63.10;;;;;;5057895;28;44942;-84
2024/01/21 02:13:42;;;;;;;5.63;5.43;;;15.60;63.10;;;;;;5054882;28;43456;-81
2024/01/21 02:16:10;;;;;;;5.37;5.17;;;15.50;63.10;;;;;;5060629;28;43392;-82
2024/01/21 02:18:38;;;;;;;5.20;5.00;;;15.60;63.30;;;;;;5050260;28;45320;-81
2024/01/21 02:21:06;;;;;;;5.90;5.70;;;15.60;63.30;;;;;;5053933;28;43698;-81
2024/01/21 02:23:35;;;;;;;6.00;5.80;;;15.70;63.00;;;;;;5048969;28;43437;-82
2024/01/21 02:26:04;;;;;;;5.57;5.37;;;15.80;62.60;;;;;;5060806;28;43360;-84
2024/01/21 02:28:32;;;;;;;5.33;5.10;;;15.80;62.50;;;;;;5050850;28;45781;-82
2024/01/21 02:31:00;;;;;;;5.47;5.27;;;15.80;62.60;;;;;;5052234;28;43561;-82
2024/01/21 02:33:28;;;;;;;5.67;5.47;;;15.80;62.60;;;;;;5053633;28;43422;-82
2024/01/21 02:35:56;;;;;;;5.60;5.40;;;15.70;62.80;;;;;;5052494;28;43446;-82
2024/01/21 02:38:25;;;;;;;5.83;5.63;;;15.70;62.70;;;;;;5053298;28;45553;-84
2024/01/21 02:40:54;;;;;;;5.47;5.27;;;15.70;62.80;;;;;;5052784;28;43531;-83
2024/01/21 02:43:22;;;;;;;5.53;5.33;;;15.70;62.80;;;;;;5050378;28;43918;-83
2024/01/21 02:45:50;;;;;;;5.60;5.40;;;15.70;62.80;;;;;;5061905;28;43503;-83
2024/01/21 02:48:18;;;;;;;5.77;5.57;;;15.60;62.80;;;;;;5052476;28;45959;-82
2024/01/21 02:50:46;;;;;;;5.70;5.50;;;15.60;62.90;;;;;;5049943;28;43436;-80
2024/01/21 02:53:15;;;;;;;5.57;5.37;;;15.60;63.10;;;;;;5060413;28;43479;-84
2024/01/21 02:55:43;;;;;;;5.80;5.60;;;15.60;63.00;;;;;;5054757;28;43434;-84
2024/01/21 02:58:12;;;;;;;5.83;5.63;;;15.60;63.00;;;;;;5056259;28;45364;-83
2024/01/21 03:00:40;;;;;;;5.87;5.67;;;15.60;63.00;;;;;;5056657;28;44925;-82
2024/01/21 03:03:10;;;;;;;5.90;5.60;;;15.60;63.00;;;;;;5061132;28;43388;-84
2024/01/21 03:05:38;;;;;;;5.93;5.73;;;15.60;63.00;;;;;;5055247;28;43377;-82
2024/01/21 03:08:07;;;;;;;5.53;5.33;;;15.60;63.00;;;;;;5056183;28;45635;-84
2024/01/21 03:10:35;;;;;;;5.90;5.70;;;15.60;63.10;;;;;;5057715;28;44764;-83
2024/01/21 03:13:03;;;;;;;5.83;5.63;;;15.60;63.30;;;;;;5055743;28;43541;-81
2024/01/21 03:15:33;;;;;;;6.30;6.00;;;15.60;63.20;;;;;;5054970;28;43521;-83
2024/01/21 03:18:01;;;;;;;6.27;5.97;;;15.70;63.00;;;;;;5049820;28;43583;-81
2024/01/21 03:20:29;;;;;;;5.77;5.57;;;15.70;62.60;;;;;;5051712;28;43489;-82
2024/01/21 03:22:57;;;;;;;5.13;5.03;;;15.70;62.60;;;;;;5048364;28;43483;-81
2024/01/21 03:25:25;;;;;;;6.60;6.30;;;15.70;62.70;;;;;;5055530;28;43836;-82
2024/01/21 03:27:53;;;;;;;6.30;6.00;;;15.70;62.90;;;;;;5056328;28;43928;-83
2024/01/21 03:30:22;;;;;;;5.83;5.63;;;15.60;62.90;;;;;;5053758;28;43474;-82
2024/01/21 03:32:51;;;;;;;6.13;5.93;;;15.60;63.00;;;;;;5051134;28;43440;-82
2024/01/21 03:35:19;;;;;;;6.07;5.87;;;15.60;63.00;;;;;;5055152;28;43926;-80
2024/01/21 03:37:47;;;;;;;5.90;5.70;;;15.60;63.10;;;;;;5055345;28;43605;-82
2024/01/21 03:40:16;;;;;;;6.03;5.73;;;15.60;63.10;;;;;;5052865;28;43524;-80
2024/01/21 03:42:45;;;;;;;5.90;5.70;;;15.50;63.10;;;;;;5060574;28;43390;-82
2024/01/21 03:45:14;;;;;;;5.80;5.60;;;15.50;63.20;;;;;;5057352;28;43533;-81
2024/01/21 03:47:42;;;;;;;5.70;5.50;;;15.50;63.20;;;;;;5057743;28;43654;-82
2024/01/21 03:50:12;;;;;;;5.80;5.60;;;15.50;63.20;;;;;;5050066;28;44317;-83
2024/01/21 03:52:40;;;;;;;5.90;5.60;;;15.50;63.20;;;;;;5055530;28;43317;-82
2024/01/21 03:55:08;;;;;;;6.10;5.90;;;15.50;63.20;;;;;;5053299;28;43402;-83
2024/01/21 03:57:37;;;;;;;6.40;6.20;;;15.50;63.20;;;;;;5051015;28;43604;-83
2024/01/21 04:00:08;;;;;;;6.13;5.93;;;15.50;63.20;;;;;;5053320;28;43398;-83
2024/01/21 04:02:40;;;;;;;6.23;5.93;;;15.50;63.20;;;;;;5056730;28;43344;-81
2024/01/21 04:05:08;;;;;;;6.27;5.97;;;15.50;63.20;;;;;;5051959;28;43452;-82
2024/01/21 04:08:00;;;;;;;5.97;5.73;;;15.50;63.20;;;;;;5050864;28;43951;-80
2024/01/21 04:10:29;;;;;;;6.17;5.87;;;15.50;63.10;;;;;;5052077;28;45054;-83
2024/01/21 04:12:57;;;;;;;6.17;5.87;;;15.50;63.00;;;;;;5059195;28;43443;-81
2024/01/21 04:15:25;;;;;;;6.00;5.80;;;15.60;63.10;;;;;;5056654;28;43942;-82
2024/01/21 04:17:53;;;;;;;6.00;5.80;;;15.50;62.90;;;;;;5052779;28;43653;-83
2024/01/21 04:20:21;;;;;;;5.80;5.60;;;15.60;63.10;;;;;;5056441;28;44583;-82
2024/01/21 04:22:49;;;;;;;6.27;6.03;;;15.50;62.90;;;;;;5054201;28;43529;-83
2024/01/21 04:25:19;;;;;;;6.27;5.97;;;15.60;63.10;;;;;;5054733;28;43537;-83
2024/01/21 04:27:47;;;;;;;6.40;6.10;;;15.60;63.00;;;;;;5051153;28;44817;-82
2024/01/21 04:30:15;;;;;;;6.17;5.97;;;15.70;62.80;;;;;;5051682;28;44406;-77
2024/01/21 04:32:44;;;;;;;6.27;5.97;;;15.70;62.20;;;;;;5056210;28;43312;-75
2024/01/21 04:35:12;;;;;;;6.53;6.23;;;15.80;62.10;;;;;;5051802;28;43459;-75
2024/01/21 04:37:40;;;;;;;5.97;5.77;;;15.80;62.10;;;;;;5053756;28;43849;-75
2024/01/21 04:40:09;;;;;;;6.20;5.90;;;15.80;62.20;;;;;;5055829;28;43350;-75
2024/01/21 04:42:38;;;;;;;6.47;6.17;;;15.80;62.20;;;;;;5048613;28;43453;-76
2024/01/21 04:45:08;;;;;;;6.00;5.80;;;15.80;62.20;;;;;;5050884;28;43981;-76
2024/01/21 04:47:39;;;;;;;6.13;5.83;;;15.70;62.20;;;;;;5047815;28;45661;-75
2024/01/21 04:50:08;;;;;;;6.67;6.37;;;15.70;62.30;;;;;;5052365;28;43364;-75
2024/01/21 04:52:36;;;;;;;6.87;6.57;;;15.70;62.30;;;;;;5050373;28;43490;-75
2024/01/21 04:55:04;;;;;;;6.03;5.83;;;15.70;62.40;;;;;;5054335;28;44001;-75
2024/01/21 04:57:33;;;;;;;6.37;6.13;;;15.70;62.50;;;;;;5053716;28;43897;-75
2024/01/21 05:00:02;;;;;;;6.23;5.93;;;15.70;62.50;;;;;;5054367;28;44791;-75
2024/01/21 05:02:31;;;;;;;6.27;6.03;;;15.60;62.60;;;;;;5055486;28;43489;-76
2024/01/21 05:04:59;;;;;;;6.07;5.87;;;15.60;62.50;;;;;;5051621;28;43521;-77
2024/01/21 05:07:27;;;;;;;6.43;6.20;;;15.60;62.60;;;;;;5058688;28;43936;-75
2024/01/21 05:09:56;;;;;;;6.37;6.07;;;15.60;62.50;;;;;;5051874;28;45203;-76
2024/01/21 05:12:25;;;;;;;6.10;5.90;;;15.60;62.50;;;;;;5053574;28;43811;-76
2024/01/21 05:14:55;;;;;;;6.50;6.20;;;15.60;62.50;;;;;;5048563;28;43406;-75
2024/01/21 05:17:25;;;;;;;6.70;6.40;;;15.60;62.60;;;;;;5049578;28;45650;-75
2024/01/21 05:19:54;;;;;;;6.27;6.00;;;15.60;62.60;;;;;;5056763;28;44734;-75
2024/01/21 05:22:22;;;;;;;6.63;6.33;;;15.60;62.80;;;;;;5061391;28;43396;-76
2024/01/21 05:24:50;;;;;;;6.57;6.30;;;15.70;62.70;;;;;;5064886;28;43387;-75
2024/01/21 05:27:19;;;;;;;6.17;5.97;;;15.70;62.10;;;;;;5058987;28;44043;-75
2024/01/21 05:29:47;;;;;;;5.70;5.50;;;15.70;62.10;;;;;;5054837;28;43441;-75
2024/01/21 05:32:15;;;;;;;6.60;6.30;;;15.80;62.20;;;;;;5056020;28;43382;-75
2024/01/21 05:34:44;;;;;;;6.47;6.17;;;15.80;62.20;;;;;;5058285;28;43526;-75
2024/01/21 05:37:15;;;;;;;6.50;6.20;;;15.70;62.20;;;;;;5053378;28;45365;-75
2024/01/21 05:39:43;;;;;;;6.70;6.40;;;15.70;62.20;;;;;;5058067;28;43410;-77
2024/01/21 05:42:11;;;;;;;6.07;5.87;;;15.70;62.20;;;;;;5053504;28;43343;-77
2024/01/21 05:44:40;;;;;;;6.93;6.63;;;15.70;62.30;;;;;;5056407;28;43364;-77
2024/01/21 05:47:08;;;;;;;6.70;6.40;;;15.70;62.30;;;;;;5060491;28;43773;-77
2024/01/21 05:49:36;;;;;;;7.00;6.60;;;15.70;62.30;;;;;;5058971;28;43492;-76
2024/01/21 05:52:06;;;;;;;6.73;6.43;;;15.70;62.40;;;;;;5060563;28;43395;-75
2024/01/21 05:54:34;;;;;;;6.53;6.23;;;15.70;62.40;;;;;;5056324;28;43657;-76
2024/01/21 05:57:02;;;;;;;6.90;6.60;;;15.60;62.30;;;;;;5055286;28;45260;-75
2024/01/21 05:59:32;;;;;;;6.97;6.60;;;15.60;62.50;;;;;;5056310;28;43524;-76
2024/01/21 06:02:00;;;;;;;6.27;6.07;;;15.70;62.40;;;;;;5062526;28;44078;-77
2024/01/21 06:04:28;;;;;;;6.57;6.27;;;15.70;62.10;;;;;;5061568;28;43986;-75
2024/01/21 06:06:58;;;;;;;6.57;6.27;;;15.70;62.10;;;;;;5054369;28;43612;-75
2024/01/21 06:09:27;;;;;;;6.50;6.20;;;15.70;62.10;;;;;;5055596;28;44758;-75
2024/01/21 06:11:55;;;;;;;6.47;6.17;;;15.70;62.20;;;;;;5056556;28;43463;-75
2024/01/21 06:14:24;;;;;;;6.30;6.07;;;15.70;62.20;;;;;;5056364;28;43549;-78
2024/01/21 06:16:53;;;;;;;6.53;6.23;;;15.70;62.30;;;;;;5055580;28;45627;-75
2024/01/21 06:19:21;;;;;;;6.33;6.13;;;15.70;62.30;;;;;;5050456;28;44409;-75
2024/01/21 06:21:49;;;;;;;6.40;6.13;;;15.70;62.30;;;;;;5050848;28;43453;-76
2024/01/21 06:24:17;;;;;;;6.47;6.17;;;15.70;62.30;;;;;;5055811;28;43479;-76
2024/01/21 06:26:47;;;;;;;6.40;6.10;;;15.60;62.20;;;;;;5057420;28;46156;-75
2024/01/21 06:29:15;;;;;;;6.70;6.40;;;15.60;62.30;;;;;;5051281;28;44345;-75
2024/01/21 06:31:43;;;;;;;6.87;6.57;;;15.60;62.20;;;;;;5059636;28;43344;-76
2024/01/21 06:34:11;;;;;;;7.17;6.77;;;15.60;62.40;;;;;;5055389;28;43352;-77
2024/01/21 06:36:41;;;;;;;6.87;6.57;;;15.60;62.60;;;;;;5051645;28;45810;-76
2024/01/21 06:39:09;;;;;;;6.57;6.27;;;15.70;62.30;;;;;;5053697;28;43371;-75
2024/01/21 06:41:37;;;;;;;6.80;6.40;;;15.80;62.00;;;;;;5055382;28;43534;-75
2024/01/21 06:44:07;;;;;;;6.57;6.27;;;15.80;62.00;;;;;;5051900;28;43641;-76
2024/01/21 06:46:35;;;;;;;6.87;6.53;;;15.80;62.80;;;;;;5053771;28;43855;-75
2024/01/21 06:49:03;;;;;;;6.60;6.30;;;15.70;62.00;;;;;;5049483;28;44777;-80
2024/01/21 06:51:34;;;;;;;6.33;6.13;;;15.70;62.10;;;;;;5052317;28;43455;-83
2024/01/21 06:54:03;;;;;;;7.47;7.03;;;15.70;62.20;;;;;;5049748;28;44060;-81
2024/01/21 06:56:31;;;;;;;6.37;6.07;;;15.70;62.20;;;;;;5061081;28;43944;-82
2024/01/21 06:59:00;;;;;;;6.73;6.43;;;15.70;62.20;;;;;;5051322;28;44747;-81
2024/01/21 07:01:29;;;;;;;6.70;6.40;;;15.70;62.20;;;;;;5055478;28;43433;-82
2024/01/21 07:03:57;;;;;;;6.10;5.80;;;15.60;62.20;;;;;;5060742;28;43414;-82
2024/01/21 07:06:26;;;;;;;6.33;6.03;;;15.60;62.30;;;;;;5055640;28;43833;-82
2024/01/21 07:08:55;;;;;;;6.77;6.47;;;15.60;62.30;;;;;;5054595;28;43527;-82
2024/01/21 07:11:25;;;;;;;6.87;6.57;;;15.60;62.50;;;;;;5058215;28;44016;-82
2024/01/21 07:13:54;;;;;;;6.77;6.47;;;15.60;63.30;;;;;;5061169;28;43498;-82
2024/01/21 07:16:22;;;;;;;7.00;6.60;;;15.60;62.90;;;;;;5056135;28;43939;-81
2024/01/21 07:18:51;;;;;;;6.50;6.20;;;15.70;62.10;;;;;;5051356;28;43930;-82
2024/01/21 07:21:19;;;;;;;7.10;6.70;;;15.70;62.20;;;;;;5054784;28;43500;-82
2024/01/21 07:23:48;;;;;;;6.83;6.43;;;15.70;62.20;;;;;;5052007;28;43489;-82
2024/01/21 07:26:16;;;;;;;6.70;6.40;;;15.70;62.30;;;;;;5053586;28;45333;-82
2024/01/21 07:28:44;;;;;;;6.80;6.50;;;15.60;62.30;;;;;;5055682;28;43484;-82
2024/01/21 07:31:12;;;;;;;6.87;6.57;;;15.60;62.30;;;;;;5055201;28;43890;-81
2024/01/21 07:33:40;;;;;;;6.57;6.27;;;15.60;62.30;;;;;;5054626;28;43950;-83
2024/01/21 07:36:10;;;;;;;5.87;5.67;;;15.60;62.30;;;;;;5057129;28;44030;-82
2024/01/21 07:38:38;;;;;;;6.53;6.23;;;15.60;62.30;;;;;;5055485;28;43545;-82
2024/01/21 07:41:06;;;;;;;6.80;6.50;;;15.60;62.40;;;;;;5055130;28;43367;-82
2024/01/21 07:43:34;;;;;;;6.50;6.20;;;15.60;62.40;;;;;;5052883;28;43430;-83
2024/01/21 07:46:02;;;;;;;6.57;6.27;;;15.60;62.40;;;;;;5053093;28;43890;-82
2024/01/21 07:48:30;;;;;;;6.43;6.13;;;15.60;62.50;;;;;;5054627;28;43445;-82
2024/01/21 07:50:58;;;;;;;6.63;6.33;;;15.60;62.70;;;;;;5052868;28;43411;-83
2024/01/21 07:53:28;;;;;;;6.70;6.40;;;15.70;62.50;;;;;;5051017;28;43418;-82
2024/01/21 07:55:56;;;;;;;6.57;6.27;;;15.70;62.00;;;;;;5056401;28;45402;-82
2024/01/21 07:58:24;;;;;;;5.87;5.67;;;15.70;61.90;;;;;;5051775;28;44139;-82
2024/01/21 08:00:52;;;;;;;6.17;5.87;;;15.70;62.00;;;;;;5062226;28;43477;-75
2024/01/21 08:03:20;;;;;;;5.97;5.77;;;15.70;62.10;;;;;;5057632;28;43474;-74
2024/01/21 08:05:48;;;;;;;6.50;6.20;;;15.70;62.20;;;;;;5050595;28;43612;-80
2024/01/21 08:08:18;;;;;;;6.17;5.97;;;15.70;62.30;;;;;;5061073;28;43422;-81
2024/01/21 08:10:47;;;;;;;5.93;5.73;;;15.70;62.30;;;;;;5059514;28;43440;-75
2024/01/21 08:13:15;;;;;;;6.47;6.17;;;15.70;62.40;;;;;;5054374;28;43483;-75
2024/01/21 08:15:44;;;;;;;5.57;5.37;;;15.60;62.30;;;;;;5051241;28;43599;-76
2024/01/21 08:18:13;;;;;;;6.03;5.73;;;15.60;62.40;;;;;;5051157;28;44127;-75
2024/01/21 08:20:42;;;;;;;5.97;5.77;;;15.60;62.50;;;;;;5055707;28;43457;-76
2024/01/21 08:23:10;;;;;;;6.17;5.87;;;15.60;62.50;;;;;;5054164;28;43526;-74
2024/01/21 08:25:38;;;;;;;6.07;5.77;;;15.50;62.50;;;;;;5050225;28;43936;-75
2024/01/21 08:28:08;;;;;;;5.83;5.63;;;15.60;62.60;;;;;;5050355;28;44537;-75
2024/01/21 08:30:36;;;;;;;6.37;6.07;;;15.60;62.60;;;;;;5054561;28;43394;-75
2024/01/21 08:33:05;;;;;;;5.83;5.63;;;15.60;62.60;;;;;;5051227;28;43609;-75
2024/01/21 08:35:33;;;;;;;6.50;6.20;;;15.60;62.60;;;;;;5051779;28;43591;-75
2024/01/21 08:38:02;;;;;;;5.90;5.70;;;15.60;62.70;;;;;;5054894;28;43622;-75
2024/01/21 08:40:31;;;;;;;6.10;5.90;;;15.50;62.60;;;;;;5051812;28;43473;-75
2024/01/21 08:42:59;;;;;;;6.50;6.20;;;15.60;62.80;;;;;;5050798;28;43442;-75
2024/01/21 08:45:29;;;;;;;6.30;6.00;;;15.60;63.60;;;;;;5050577;28;45597;-76
2024/01/21 08:47:57;;;;;;;6.10;5.80;;;15.60;62.50;;;;;;5056876;28;43427;-76
2024/01/21 08:50:28;;;;;;;5.47;5.27;;;15.70;62.20;;;;;;5054489;28;43398;-76
2024/01/21 08:52:56;;;;;;;5.50;5.30;;;15.70;62.20;;;;;;5053563;28;43426;-75
2024/01/21 08:55:27;;;;;;;5.40;5.20;;;15.70;62.30;;;;;;5057430;28;43591;-78
2024/01/21 08:57:57;;;;;;;5.60;5.40;;;15.70;62.40;;;;;;5062750;28;43968;-75
2024/01/21 09:00:27;;;;;;;5.27;5.07;;;15.70;62.40;;;;;;5060387;28;43431;-75
2024/01/21 09:02:56;;;;;;;5.73;5.53;;;15.60;62.40;;;;;;5061679;28;43598;-75
2024/01/21 09:05:24;;;;;;;5.50;5.30;;;15.60;62.50;;;;;;5065792;28;43631;-75
2024/01/21 09:07:53;;;;;;;6.10;5.80;;;15.60;62.60;;;;;;5062539;28;43458;-75
2024/01/21 09:10:22;;;;;;;5.10;4.90;;;15.60;62.60;;;;;;5060065;28;43458;-81
2024/01/21 09:12:53;;;;;;;5.60;5.40;;;15.60;62.70;;;;;;5064399;28;43428;-79
2024/01/21 09:15:22;;;;;;;5.40;5.20;;;15.60;62.70;;;;;;5064552;28;44004;-80
2024/01/21 09:17:59;;;;;;;5.60;5.40;;;15.60;62.80;;;;;;5059623;28;44378;-81
2024/01/21 09:20:33;;;;;;;6.00;5.70;;;15.60;62.90;;;;;;5063907;28;43597;-82
2024/01/21 09:23:02;;;;;;;5.30;5.10;;;15.60;62.80;;;;;;5060344;28;43545;-81
2024/01/21 09:25:30;;;;;;;5.53;5.30;;;15.70;62.60;;;;;;5057888;28;43981;-81
2024/01/21 09:27:58;;;;;;;5.03;4.83;;;15.80;62.30;;;;;;5057261;28;43486;-79
2024/01/21 09:30:31;;;;;;;5.37;5.17;;;15.90;62.00;;;;;;5055250;28;43355;-80
2024/01/21 09:33:01;;;;;;;5.00;4.80;;;16.10;61.60;;;;;;5069743;28;43459;-81
2024/01/21 09:35:30;;;;;;;4.73;4.60;;;16.30;61.20;;;;;;5060039;28;43848;-80
2024/01/21 09:37:58;;;;;;;5.03;4.73;;;16.40;60.90;;;;;;5059513;28;44043;-82
2024/01/21 09:40:26;;;;;;;5.10;5.00;;;16.50;60.50;;;;;;5060718;28;43818;-83
2024/01/21 09:42:54;;;;;;;4.70;4.60;;;16.60;60.20;;;;;;5056183;28;43491;-80
2024/01/21 09:45:22;;;;;;;5.40;5.20;;;16.70;60.10;;;;;;5057818;28;43920;-81
2024/01/21 09:47:51;;;;;;;5.03;4.83;;;16.70;59.90;;;;;;5060025;28;43480;-82
2024/01/21 09:50:20;;;;;;;4.83;4.63;;;16.70;59.80;;;;;;5059598;28;43406;-80
2024/01/21 09:52:48;;;;;;;4.57;4.47;;;16.50;59.80;;;;;;5064737;28;43487;-81
2024/01/21 09:55:16;;;;;;;4.83;4.73;;;16.40;60.10;;;;;;5058131;28;43599;-81
2024/01/21 09:57:44;;;;;;;4.70;4.60;;;16.30;60.60;;;;;;5061037;28;44713;-80
2024/01/21 10:00:14;;;;;;;4.87;4.67;;;16.20;61.00;;;;;;5061913;28;43412;-80
2024/01/21 10:02:43;;;;;;;5.10;4.90;;;16.00;62.20;;;;;;5068379;28;43424;-79
2024/01/21 10:05:11;;;;;;;4.57;4.47;;;16.00;61.50;;;;;;5057839;28;43968;-80
2024/01/21 10:07:40;;;;;;;4.57;4.47;;;15.90;61.60;;;;;;5055917;28;43478;-81
2024/01/21 10:10:09;;;;;;;4.50;4.40;;;15.90;61.70;;;;;;5057029;28;43480;-81
2024/01/21 10:12:37;;;;;;;4.37;4.27;;;15.80;61.80;;;;;;5059280;28;43514;-81
2024/01/21 10:15:07;;;;;;;4.37;4.27;;;15.80;62.70;;;;;;5052052;28;45732;-82
2024/01/21 10:17:35;;;;;;;4.77;4.60;;;15.70;62.10;;;;;;5050344;28;44264;-80
2024/01/21 10:20:03;;;;;;;4.50;4.30;;;15.70;62.40;;;;;;5061461;28;43466;-76
2024/01/21 10:22:32;;;;;;;4.20;4.10;;;15.70;62.30;;;;;;5058010;28;43881;-75
2024/01/21 10:25:03;;;;;;;5.00;4.80;;;15.70;62.30;;;;;;5061242;28;43908;-77
2024/01/21 10:27:31;;;;;;;4.20;4.10;;;15.70;62.40;;;;;;5054895;28;43442;-78
2024/01/21 10:29:59;;;;;;;6.93;5.03;;;15.70;62.30;;;;;;5058386;28;43416;-77
2024/01/21 10:32:27;;;;;;;6.07;4.77;;;15.70;62.40;;;;;;5057054;28;44020;-77
2024/01/21 10:34:59;;;;;;;5.60;5.07;;;15.60;62.40;;;;;;5051347;28;43677;-84
2024/01/21 10:37:28;;;;;;;5.50;5.10;;;15.70;62.60;;;;;;5049987;28;45005;-76
2024/01/21 10:39:56;;;;;;;6.00;5.10;;;15.70;62.70;;;;;;5055835;28;44382;-77
2024/01/21 10:42:29;;;;;;;6.97;4.70;;;15.80;62.40;;;;;;5061632;28;43606;-79
2024/01/21 10:44:57;;;;;;;6.33;4.87;;;15.80;61.90;;;;;;5060081;28;43616;-74
2024/01/21 10:47:25;;;;;;;5.63;5.13;;;15.80;61.90;;;;;;5054425;28;44669;-75
2024/01/21 10:49:54;;;;;;;6.33;5.20;;;15.80;62.10;;;;;;5051919;28;43471;-76
2024/01/21 10:52:22;;;;;;;8.20;5.87;;;15.80;62.20;;;;;;5055089;28;43410;-76
2024/01/21 10:54:50;;;;;;;5.13;4.57;;;15.70;62.20;;;;;;5054528;28;43934;-75
2024/01/21 10:57:19;;;;;;;6.23;4.93;;;15.70;62.30;;;;;;5051043;28;45342;-80
2024/01/21 10:59:48;;;;;;;5.53;5.03;;;15.70;62.30;;;;;;5053210;28;43450;-77
2024/01/21 11:02:20;;;;;;;4.30;4.00;;;15.80;62.40;;;;;;5060413;28;43478;-77
2024/01/21 11:04:48;;;;;;;4.87;4.27;;;15.70;63.10;;;;;;5055271;28;45774;-75
2024/01/21 11:07:17;;;;;;;6.13;5.10;;;15.70;62.50;;;;;;5047922;28;44443;-75
2024/01/21 11:09:46;;;;;;;4.80;4.40;;;15.70;62.60;;;;;;5056120;28;43498;-76
2024/01/21 11:12:15;;;;;;;5.27;4.97;;;15.70;62.60;;;;;;5057266;28;43347;-75
2024/01/21 11:14:44;;;;;;;4.73;4.43;;;15.70;62.60;;;;;;5050174;28;43688;-75
2024/01/21 11:17:17;;;;;;;4.83;4.50;;;15.70;62.60;;;;;;5054476;28;45057;-76
2024/01/21 11:19:50;;;;;;;4.47;4.17;;;15.70;62.60;;;;;;5053572;28;43348;-76
2024/01/21 11:22:20;;;;;;;4.37;4.17;;;15.70;62.70;;;;;;5057053;28;43484;-76
2024/01/21 11:24:49;;;;;;;5.03;4.33;;;15.70;62.70;;;;;;5053921;28;43563;-76
2024/01/21 11:27:18;;;;;;;4.40;4.13;;;15.70;62.80;;;;;;5060150;28;45060;-76
2024/01/21 11:29:48;;;;;;;5.10;4.87;;;15.70;62.90;;;;;;5055013;28;43428;-78
2024/01/21 11:32:20;;;;;;;4.17;3.97;;;15.80;62.90;;;;;;5059712;28;43361;-77
2024/01/21 11:34:49;;;;;;;5.47;4.50;;;15.90;62.40;;;;;;5056282;28;43613;-79
2024/01/21 11:37:17;;;;;;;4.00;3.90;;;15.90;62.10;;;;;;5052082;28;45041;-77
2024/01/21 11:39:45;;;;;;;4.47;4.17;;;15.90;62.10;;;;;;5067696;28;43573;-78
2024/01/21 11:42:13;;;;;;;5.13;4.53;;;15.90;62.30;;;;;;5065735;28;43401;-80
2024/01/21 11:44:42;;;;;;;5.30;4.80;;;15.90;62.40;;;;;;5070105;28;44436;-80
2024/01/21 11:47:10;;;;;;;4.90;4.50;;;15.90;62.40;;;;;;5076205;22;45481;-70
2024/01/21 11:49:41;;;;;;;6.33;5.10;;;15.90;62.60;;;;;;5032341;28;43594;-70
2024/01/21 11:52:09;;;;;;;5.77;5.10;;;15.80;62.50;;;;;;5037306;28;43467;-72
2024/01/21 11:54:38;;;;;;;5.03;4.53;;;15.80;62.70;;;;;;5035225;28;45279;-72
2024/01/21 11:57:06;;;;;;;5.47;4.97;;;15.80;62.90;;;;;;5037374;28;43401;-72
2024/01/21 11:59:35;;;;;;;6.60;4.80;;;15.80;62.90;;;;;;5043440;28;43362;-70
2024/01/21 12:02:06;;;;;;;5.23;4.77;;;15.70;62.90;;;;;;5063967;27;43363;-70
2024/01/21 12:04:34;;;;;;;5.20;4.80;;;15.70;62.90;;;;;;5066518;28;43632;-70
2024/01/21 12:07:03;;;;;;;7.83;5.50;;;15.80;63.00;;;;;;5062924;28;43422;-70
2024/01/21 12:09:31;;;;;;;5.40;4.90;;;15.80;63.10;;;;;;5064957;28;43456;-70
2024/01/21 12:12:00;;;;;;;5.87;4.70;;;15.80;63.10;;;;;;5060669;27;43805;-70
2024/01/21 12:14:27;;;;;;;5.10;4.70;;;15.70;63.10;;;;;;5061804;28;43624;-70
2024/01/21 12:16:55;;;;;;;5.40;5.00;;;15.70;63.10;;;;;;5063918;27;43396;-70
2024/01/21 12:19:24;;;;;;;6.57;5.17;;;15.70;63.20;;;;;;5063049;28;43812;-70
2024/01/21 12:21:53;;;;;;;5.67;5.20;;;15.70;63.30;;;;;;5063902;27;43478;-70
2024/01/21 12:24:23;;;;;;;6.57;5.67;;;15.80;63.10;;;;;;5061128;27;46003;-70
2024/01/21 12:26:53;;;;;;;6.03;4.70;;;15.80;62.60;;;;;;5065435;27;43728;-70
2024/01/21 12:29:21;;;;;;;5.33;4.83;;;15.90;62.70;;;;;;5055304;28;43402;-70
2024/01/21 12:31:49;;;;;;;5.33;4.83;;;15.80;62.70;;;;;;5064159;28;43337;-70
2024/01/21 12:34:18;;;;;;;5.50;4.97;;;15.80;62.80;;;;;;5066473;27;43666;-70
2024/01/21 12:36:49;;;;;;;7.83;5.20;;;15.80;62.90;;;;;;5063201;28;43927;-70
2024/01/21 12:39:21;;;;;;;5.23;4.30;;;15.80;62.90;;;;;;5087652;28;43431;-70
2024/01/21 12:41:50;;;;;;;5.40;4.93;;;15.80;63.00;;;;;;5067711;28;43540;-70
2024/01/21 12:44:18;;;;;;;5.83;5.20;;;15.80;63.00;;;;;;5062689;28;43572;-70
2024/01/21 12:46:47;;;;;;;5.10;4.73;;;15.80;63.10;;;;;;5063714;28;43507;-70
2024/01/21 12:49:15;;;;;;;5.60;5.07;;;15.80;63.20;;;;;;5066820;28;43898;-70
2024/01/21 12:51:45;;;;;;;5.53;4.90;;;15.70;63.20;;;;;;5062878;28;43373;-70
2024/01/21 12:54:14;;;;;;;5.20;4.80;;;15.70;63.20;;;;;;5063276;28;43572;-70
2024/01/21 12:56:42;;;;;;;6.57;5.10;;;15.70;63.20;;;;;;5063048;28;43383;-70